createdAt,value
2023-05-18T00:02:21.216Z,4.90
2023-05-18T00:04:48.282Z,4.80
2023-05-18T00:07:15.645Z,4.90
2023-05-18T00:09:42.415Z,4.80
2023-05-18T00:12:10.029Z,4.80
2023-05-18T00:14:37.272Z,4.80
2023-05-18T00:17:04.105Z,4.80
2023-05-18T00:19:31.267Z,4.70
2023-05-18T00:21:58.060Z,4.60
2023-05-18T00:24:25.435Z,4.60
2023-05-18T00:26:52.146Z,4.50
2023-05-18T00:29:18.875Z,4.50
2023-05-18T00:31:46.041Z,4.50
2023-05-18T00:34:14.741Z,4.40
2023-05-18T00:36:41.840Z,4.30
2023-05-18T00:39:09.358Z,4.30
2023-05-18T00:41:36.444Z,4.30
2023-05-18T00:44:04.777Z,4.20
2023-05-18T00:46:32.141Z,4.10
2023-05-18T00:49:01.421Z,4.10
2023-05-18T00:51:29.150Z,4.10
2023-05-18T00:53:57.235Z,4.10
2023-05-18T00:56:25.011Z,4.00
2023-05-18T00:58:57.151Z,4.00
2023-05-18T01:01:28.794Z,4.00
2023-05-18T01:03:57.563Z,4.00
2023-05-18T01:06:27.047Z,4.00
2023-05-18T01:08:54.744Z,3.90
2023-05-18T01:11:24.291Z,3.90
2023-05-18T01:14:02.609Z,3.90
2023-05-18T01:16:41.794Z,4.00
2023-05-18T01:19:41.717Z,4.00
2023-05-18T01:22:38.961Z,3.90
2023-05-18T01:25:19.599Z,3.80
2023-05-18T01:27:47.372Z,3.70
2023-05-18T01:30:17.150Z,3.60
2023-05-18T01:32:47.197Z,3.60
2023-05-18T01:35:14.054Z,3.60
2023-05-18T01:37:41.060Z,3.50
2023-05-18T01:40:09.372Z,3.50
2023-05-18T01:42:43.087Z,3.50
2023-05-18T01:45:17.781Z,3.40
2023-05-18T01:47:48.667Z,3.40
2023-05-18T01:50:18.969Z,3.40
2023-05-18T01:53:00.581Z,3.40
2023-05-18T01:55:30.938Z,3.40
2023-05-18T01:58:00.506Z,3.40
2023-05-18T02:00:27.696Z,3.40
2023-05-18T02:02:54.456Z,3.40
2023-05-18T02:05:21.540Z,3.40
2023-05-18T02:07:48.451Z,3.50
2023-05-18T02:10:15.421Z,3.50
2023-05-18T02:12:42.205Z,3.40
2023-05-18T02:15:09.350Z,3.40
2023-05-18T02:17:39.798Z,3.30
2023-05-18T02:20:07.724Z,3.30
2023-05-18T02:22:35.145Z,3.30
2023-05-18T02:25:02.614Z,3.30
2023-05-18T02:27:29.289Z,3.20
2023-05-18T02:29:56.698Z,3.20
2023-05-18T02:32:23.492Z,3.30
2023-05-18T02:34:53.700Z,3.30
2023-05-18T02:37:23.107Z,3.20
2023-05-18T02:39:50.184Z,3.10
2023-05-18T02:42:16.860Z,3.10
2023-05-18T02:44:43.916Z,3.10
2023-05-18T02:47:10.710Z,3.10
2023-05-18T02:49:37.533Z,3.00
2023-05-18T02:52:04.513Z,3.00
2023-05-18T02:54:32.110Z,2.90
2023-05-18T02:56:58.975Z,2.90
2023-05-18T02:59:26.393Z,2.90
2023-05-18T03:01:53.187Z,2.80
2023-05-18T03:04:20.123Z,2.90
2023-05-18T03:06:47.290Z,2.80
2023-05-18T03:09:15.728Z,2.80
2023-05-18T03:11:42.530Z,2.80
2023-05-18T03:14:09.263Z,2.70
2023-05-18T03:16:38.742Z,2.70
2023-05-18T03:19:05.929Z,2.60
2023-05-18T03:21:36.249Z,2.60
2023-05-18T03:24:03.676Z,2.60
2023-05-18T03:26:31.088Z,2.60
2023-05-18T03:28:58.682Z,2.50
2023-05-18T03:31:26.291Z,2.60
2023-05-18T03:33:53.139Z,2.50
2023-05-18T03:36:22.458Z,2.40
2023-05-18T03:38:49.318Z,2.40
2023-05-18T03:41:16.223Z,2.40
2023-05-18T03:43:42.925Z,2.40
2023-05-18T03:46:09.785Z,2.40
2023-05-18T03:48:36.590Z,2.40
2023-05-18T03:51:04.611Z,2.50
2023-05-18T03:53:31.500Z,2.40
2023-05-18T03:55:58.201Z,2.40
2023-05-18T03:58:25.467Z,2.50
2023-05-18T04:00:52.741Z,2.50
2023-05-18T04:03:21.579Z,2.60
2023-05-18T04:05:49.703Z,2.50
2023-05-18T04:08:16.629Z,2.50
2023-05-18T04:10:44.186Z,2.40
2023-05-18T04:13:11.472Z,2.50
2023-05-18T04:15:38.623Z,2.50
2023-05-18T04:18:05.541Z,2.60
2023-05-18T04:20:32.437Z,2.60
2023-05-18T04:22:59.134Z,2.70
2023-05-18T04:25:28.094Z,2.70
2023-05-18T04:27:56.307Z,2.70
2023-05-18T04:30:23.761Z,2.80
2023-05-18T04:32:51.389Z,2.80
2023-05-18T04:35:18.686Z,2.90
2023-05-18T04:37:45.779Z,2.90
2023-05-18T04:40:17.264Z,2.90
2023-05-18T04:42:48.723Z,2.90
2023-05-18T04:45:17.654Z,3.00
2023-05-18T04:47:46.756Z,3.00
2023-05-18T04:50:17.384Z,3.10
2023-05-18T04:52:49.078Z,3.20
2023-05-18T04:55:28.027Z,3.20
2023-05-18T04:57:56.783Z,3.20
2023-05-18T05:00:25.159Z,3.30
2023-05-18T05:02:52.138Z,3.30
2023-05-18T05:05:19.271Z,3.50
2023-05-18T05:07:46.037Z,3.50
2023-05-18T05:10:13.058Z,3.70
2023-05-18T05:12:41.233Z,3.80
2023-05-18T05:15:08.840Z,3.90
2023-05-18T05:17:35.726Z,4.00
2023-05-18T05:20:02.572Z,4.20
2023-05-18T05:22:29.443Z,4.40
2023-05-18T05:24:56.364Z,4.50
2023-05-18T05:27:24.229Z,4.60
2023-05-18T05:29:51.073Z,4.70
2023-05-18T05:32:18.030Z,4.80
2023-05-18T05:34:46.861Z,4.90
2023-05-18T05:37:13.988Z,5.00
2023-05-18T05:39:40.932Z,5.10
2023-05-18T05:42:08.981Z,5.30
2023-05-18T05:44:35.985Z,5.40
2023-05-18T05:47:03.870Z,5.50
2023-05-18T05:49:30.767Z,5.60
2023-05-18T05:51:57.502Z,5.70
2023-05-18T05:54:24.272Z,5.80
2023-05-18T05:56:51.201Z,5.80
2023-05-18T05:59:18.176Z,5.90
2023-05-18T06:01:45.228Z,6.00
2023-05-18T06:04:12.702Z,6.00
2023-05-18T06:06:39.825Z,6.00
2023-05-18T06:09:06.955Z,6.10
2023-05-18T06:11:33.870Z,6.20
2023-05-18T06:14:00.751Z,6.30
2023-05-18T06:16:27.706Z,6.30
2023-05-18T06:18:54.524Z,6.40
2023-05-18T06:21:21.616Z,6.50
2023-05-18T06:23:48.361Z,6.60
2023-05-18T06:26:15.089Z,6.70
2023-05-18T06:28:47.206Z,6.90
2023-05-18T06:31:14.490Z,6.90
2023-05-18T06:33:41.346Z,7.00
2023-05-18T06:36:08.377Z,7.10
2023-05-18T06:38:35.196Z,7.20
2023-05-18T06:41:01.924Z,7.20
2023-05-18T06:43:28.803Z,7.30
2023-05-18T06:45:56.189Z,7.30
2023-05-18T06:48:27.236Z,7.40
2023-05-18T06:50:54.675Z,7.50
2023-05-18T06:53:22.601Z,7.60
2023-05-18T06:55:49.421Z,7.70
2023-05-18T06:58:16.197Z,7.70
2023-05-18T07:00:42.959Z,7.80
2023-05-18T07:03:09.751Z,7.90
2023-05-18T07:05:39.196Z,7.90
2023-05-18T07:08:07.265Z,8.00
2023-05-18T07:10:35.813Z,8.00
2023-05-18T07:13:02.792Z,8.10
2023-05-18T07:15:30.006Z,8.20
2023-05-18T07:17:57.390Z,8.30
2023-05-18T07:20:26.178Z,8.30
2023-05-18T07:22:55.239Z,8.40
2023-05-18T07:25:23.680Z,8.50
2023-05-18T07:27:54.480Z,8.50
2023-05-18T07:30:26.429Z,8.60
2023-05-18T07:32:53.578Z,8.70
2023-05-18T07:35:21.679Z,8.80
2023-05-18T07:37:49.615Z,8.90
2023-05-18T07:40:16.523Z,8.90
2023-05-18T07:42:43.796Z,9.00
2023-05-18T07:45:11.155Z,9.20
2023-05-18T07:47:38.281Z,9.20
2023-05-18T07:50:06.283Z,9.20
2023-05-18T07:52:33.066Z,9.30
2023-05-18T07:55:01.037Z,9.40
2023-05-18T07:57:27.977Z,9.50
2023-05-18T07:59:54.687Z,9.70
2023-05-18T08:02:21.788Z,9.60
2023-05-18T08:04:48.649Z,9.70
2023-05-18T08:07:15.350Z,9.90
2023-05-18T08:09:42.163Z,10.00
2023-05-18T08:12:09.324Z,10.00
2023-05-18T08:14:36.370Z,10.10
2023-05-18T08:17:04.716Z,10.20
2023-05-18T08:19:31.684Z,10.30
2023-05-18T08:21:58.569Z,10.40
2023-05-18T08:24:25.417Z,10.50
2023-05-18T08:26:52.673Z,10.60
2023-05-18T08:29:19.570Z,10.70
2023-05-18T08:31:49.294Z,10.70
2023-05-18T08:34:16.659Z,10.80
2023-05-18T08:36:45.662Z,11.00
2023-05-18T08:39:12.966Z,11.00
2023-05-18T08:41:42.779Z,11.10
2023-05-18T08:44:20.607Z,11.10
2023-05-18T08:46:51.149Z,11.30
2023-05-18T08:49:22.088Z,11.60
2023-05-18T08:51:56.650Z,11.60
2023-05-18T08:54:24.442Z,11.70
2023-05-18T08:56:53.305Z,11.90
2023-05-18T08:59:24.484Z,12.00
2023-05-18T09:01:52.360Z,12.20
2023-05-18T09:04:20.316Z,12.40
2023-05-18T09:06:48.891Z,12.50
2023-05-18T09:09:16.172Z,12.60
2023-05-18T09:11:43.194Z,12.70
2023-05-18T09:14:10.512Z,12.90
2023-05-18T09:16:37.631Z,13.10
2023-05-18T09:19:04.920Z,13.30
2023-05-18T09:21:32.818Z,13.30
2023-05-18T09:24:02.619Z,13.50
2023-05-18T09:26:29.555Z,13.70
2023-05-18T09:28:56.402Z,13.90
2023-05-18T09:31:24.862Z,14.00
2023-05-18T09:33:52.595Z,14.20
2023-05-18T09:36:25.121Z,14.40
2023-05-18T09:38:52.202Z,14.30
2023-05-18T09:41:19.427Z,14.40
2023-05-18T09:43:48.873Z,14.60
2023-05-18T09:46:15.755Z,14.70
2023-05-18T09:48:53.073Z,14.80
2023-05-18T09:51:21.971Z,15.00
2023-05-18T09:53:56.508Z,15.10
2023-05-18T09:56:24.569Z,14.80
2023-05-18T09:58:51.508Z,14.90
2023-05-18T10:01:18.767Z,15.00
2023-05-18T10:03:48.293Z,15.20
2023-05-18T10:06:17.657Z,15.20
2023-05-18T10:08:45.593Z,14.80
2023-05-18T10:11:12.618Z,14.80
2023-05-18T10:13:39.517Z,15.20
2023-05-18T10:16:08.221Z,15.50
2023-05-18T10:18:38.791Z,15.70
2023-05-18T10:21:09.739Z,15.70
2023-05-18T10:23:37.357Z,15.60
2023-05-18T10:26:09.614Z,15.30
2023-05-18T10:28:43.299Z,15.00
2023-05-18T10:31:10.749Z,14.80
2023-05-18T10:33:38.696Z,14.90
2023-05-18T10:36:09.032Z,15.20
2023-05-18T10:38:40.763Z,15.10
2023-05-18T10:41:08.172Z,15.00
2023-05-18T10:43:36.587Z,15.10
2023-05-18T10:46:07.578Z,15.30
2023-05-18T10:48:38.943Z,15.30
2023-05-18T10:51:07.766Z,15.40
2023-05-18T10:53:34.721Z,15.40
2023-05-18T10:56:01.786Z,15.90
2023-05-18T10:58:30.779Z,16.10
2023-05-18T11:01:00.199Z,16.10
2023-05-18T11:03:28.566Z,16.30
2023-05-18T11:06:10.381Z,16.30
2023-05-18T11:08:47.421Z,16.50
2023-05-18T11:11:17.230Z,16.80
2023-05-18T11:13:49.181Z,17.00
2023-05-18T11:16:17.585Z,17.10
2023-05-18T11:18:49.617Z,17.10
2023-05-18T11:21:50.403Z,17.00
2023-05-18T11:24:33.245Z,17.10
2023-05-18T11:27:01.160Z,17.10
2023-05-18T11:29:34.577Z,17.10
2023-05-18T11:32:02.574Z,17.20
2023-05-18T11:34:45.414Z,17.20
2023-05-18T11:37:17.303Z,17.30
2023-05-18T11:39:59.776Z,17.50
2023-05-18T11:42:32.878Z,17.50
2023-05-18T11:45:09.458Z,17.60
2023-05-18T11:47:37.098Z,17.40
2023-05-18T11:50:08.269Z,17.50
2023-05-18T11:52:47.010Z,17.40
2023-05-18T11:55:15.238Z,17.50
2023-05-18T11:57:47.754Z,17.90
2023-05-18T12:00:16.092Z,17.80
2023-05-18T12:02:46.539Z,17.90
2023-05-18T12:05:14.646Z,17.90
2023-05-18T12:07:42.221Z,17.90
2023-05-18T12:10:14.827Z,17.80
2023-05-18T12:12:42.349Z,17.70
2023-05-18T12:15:11.745Z,17.70
2023-05-18T12:17:43.694Z,17.80
2023-05-18T12:20:31.318Z,17.70
2023-05-18T12:22:58.537Z,17.80
2023-05-18T12:25:28.041Z,17.70
2023-05-18T12:27:56.914Z,17.60
2023-05-18T12:30:26.313Z,17.40
2023-05-18T12:32:57.116Z,17.50
2023-05-18T12:35:25.363Z,17.50
2023-05-18T12:37:52.647Z,17.60
2023-05-18T12:40:20.599Z,17.60
2023-05-18T12:42:59.533Z,17.50
2023-05-18T12:45:28.253Z,17.60
2023-05-18T12:47:56.306Z,17.70
2023-05-18T12:50:26.721Z,17.70
2023-05-18T12:52:56.689Z,17.80
2023-05-18T12:55:25.260Z,17.70
2023-05-18T12:58:06.184Z,17.60
2023-05-18T13:00:37.290Z,17.60
2023-05-18T13:03:07.686Z,17.50
2023-05-18T13:05:34.817Z,17.60
2023-05-18T13:08:01.916Z,17.60
2023-05-18T13:10:32.989Z,17.50
2023-05-18T13:13:04.244Z,17.60
2023-05-18T13:15:36.592Z,17.80
2023-05-18T13:18:05.687Z,17.60
2023-05-18T13:20:35.981Z,17.60
2023-05-18T13:23:15.210Z,17.60
2023-05-18T13:25:43.619Z,17.60
2023-05-18T13:28:12.479Z,17.60
2023-05-18T13:30:40.993Z,17.60
2023-05-18T13:33:08.902Z,17.60
2023-05-18T13:35:36.794Z,17.50
2023-05-18T13:38:03.901Z,17.40
2023-05-18T13:40:30.896Z,17.30
2023-05-18T13:42:57.734Z,17.20
2023-05-18T13:45:24.724Z,17.10
2023-05-18T13:47:53.827Z,17.00
2023-05-18T13:50:21.879Z,17.10
2023-05-18T13:52:49.222Z,17.30
2023-05-18T13:55:16.420Z,17.30
2023-05-18T13:57:45.110Z,17.20
2023-05-18T14:00:17.147Z,17.30
2023-05-18T14:02:45.002Z,17.40
2023-05-18T14:05:12.266Z,17.40
2023-05-18T14:07:40.509Z,17.30
2023-05-18T14:10:11.457Z,17.20
2023-05-18T14:12:38.535Z,17.00
2023-05-18T14:15:06.104Z,16.90
2023-05-18T14:17:33.055Z,16.90
2023-05-18T14:20:00.135Z,16.90
2023-05-18T14:22:27.610Z,16.90
2023-05-18T14:24:54.410Z,17.00
2023-05-18T14:27:21.558Z,17.10
2023-05-18T14:29:49.941Z,17.10
2023-05-18T14:32:17.706Z,17.10
2023-05-18T14:34:44.557Z,17.10
2023-05-18T14:37:11.593Z,17.00
2023-05-18T14:39:39.166Z,16.80
2023-05-18T14:42:06.453Z,16.90
2023-05-18T14:44:33.280Z,16.80
2023-05-18T14:47:00.382Z,16.90
2023-05-18T14:49:27.373Z,16.80
2023-05-18T14:51:54.281Z,16.70
2023-05-18T14:54:22.242Z,16.70
2023-05-18T14:56:49.106Z,16.70
2023-05-18T14:59:16.005Z,16.60
2023-05-18T15:01:42.992Z,16.50
2023-05-18T15:04:10.259Z,16.50
2023-05-18T15:06:37.620Z,16.50
2023-05-18T15:09:06.417Z,16.50
2023-05-18T15:11:33.383Z,16.50
2023-05-18T15:14:00.280Z,16.50
2023-05-18T15:16:27.102Z,16.40
2023-05-18T15:18:54.140Z,16.40
2023-05-18T15:21:21.168Z,16.40
2023-05-18T15:23:48.074Z,16.40
2023-05-18T15:26:14.974Z,16.40
2023-05-18T15:28:44.889Z,16.50
2023-05-18T15:31:11.963Z,16.40
2023-05-18T15:33:42.372Z,16.40
2023-05-18T15:36:09.686Z,16.40
2023-05-18T15:38:36.682Z,16.30
2023-05-18T15:41:03.690Z,16.20
2023-05-18T15:43:31.137Z,16.20
2023-05-18T15:45:58.787Z,16.10
2023-05-18T15:48:26.069Z,16.10
2023-05-18T15:50:52.975Z,16.00
2023-05-18T15:53:19.778Z,16.00
2023-05-18T15:55:47.104Z,16.00
2023-05-18T15:58:14.698Z,16.00
2023-05-18T16:00:41.534Z,15.90
2023-05-18T16:03:08.676Z,15.90
2023-05-18T16:05:35.776Z,15.80
2023-05-18T16:08:02.720Z,15.80
2023-05-18T16:10:29.998Z,15.80
2023-05-18T16:13:04.238Z,15.80
2023-05-18T16:15:32.627Z,15.80
2023-05-18T16:17:59.497Z,15.70
2023-05-18T16:20:26.488Z,15.70
2023-05-18T16:22:53.532Z,15.70
2023-05-18T16:25:20.365Z,15.70
2023-05-18T16:27:47.279Z,15.60
2023-05-18T16:30:14.281Z,15.60
2023-05-18T16:32:43.335Z,15.60
2023-05-18T16:35:13.249Z,15.60
2023-05-18T16:37:40.333Z,15.60
2023-05-18T16:40:08.560Z,15.60
2023-05-18T16:42:35.515Z,15.50
2023-05-18T16:45:03.151Z,15.50
2023-05-18T16:47:32.909Z,15.50
2023-05-18T16:50:00.499Z,15.50
2023-05-18T16:52:27.721Z,15.50
2023-05-18T16:54:54.546Z,15.50
2023-05-18T16:57:22.311Z,15.40
2023-05-18T16:59:49.436Z,15.30
2023-05-18T17:02:17.793Z,15.40
2023-05-18T17:04:49.611Z,15.40
2023-05-18T17:07:16.823Z,15.30
2023-05-18T17:09:44.285Z,15.40
2023-05-18T17:12:11.816Z,15.40
2023-05-18T17:14:38.927Z,15.40
2023-05-18T17:17:06.773Z,15.30
2023-05-18T17:19:35.095Z,15.30
2023-05-18T17:22:03.249Z,15.30
2023-05-18T17:24:30.194Z,15.20
2023-05-18T17:26:57.120Z,15.20
2023-05-18T17:29:23.972Z,15.30
2023-05-18T17:31:51.011Z,15.30
2023-05-18T17:34:17.970Z,15.30
2023-05-18T17:36:45.795Z,15.20
2023-05-18T17:39:13.182Z,15.20
2023-05-18T17:41:39.981Z,15.20
2023-05-18T17:44:06.986Z,15.20
2023-05-18T17:46:33.997Z,15.20
2023-05-18T17:49:03.752Z,15.20
2023-05-18T17:51:31.549Z,15.10
2023-05-18T17:53:58.331Z,15.10
2023-05-18T17:56:27.542Z,15.10
2023-05-18T17:58:54.610Z,15.10
2023-05-18T18:01:21.795Z,15.00
2023-05-18T18:03:48.828Z,15.00
2023-05-18T18:06:17.767Z,15.00
2023-05-18T18:08:45.121Z,15.10
2023-05-18T18:11:12.035Z,15.00
2023-05-18T18:13:38.890Z,15.00
2023-05-18T18:16:06.305Z,15.00
2023-05-18T18:18:36.606Z,15.00
2023-05-18T18:21:04.370Z,15.00
2023-05-18T18:23:31.099Z,15.00
2023-05-18T18:25:58.521Z,15.00
2023-05-18T18:28:25.824Z,14.90
2023-05-18T18:30:52.761Z,14.90
2023-05-18T18:33:20.901Z,14.80
2023-05-18T18:35:48.254Z,14.80
2023-05-18T18:38:14.976Z,14.80
2023-05-18T18:40:41.871Z,14.80
2023-05-18T18:43:08.559Z,14.80
2023-05-18T18:45:35.504Z,14.80
2023-05-18T18:48:02.660Z,14.80
2023-05-18T18:50:29.672Z,14.70
2023-05-18T18:52:56.665Z,14.70
2023-05-18T18:55:24.475Z,14.70
2023-05-18T18:57:52.989Z,14.70
2023-05-18T19:00:22.624Z,14.60
2023-05-18T19:02:49.458Z,14.60
2023-05-18T19:05:21.543Z,14.50
2023-05-18T19:07:49.875Z,14.50
2023-05-18T19:10:16.750Z,14.50
2023-05-18T19:12:43.957Z,14.50
2023-05-18T19:15:13.450Z,14.50
2023-05-18T19:17:45.837Z,14.40
2023-05-18T19:20:13.101Z,14.40
2023-05-18T19:22:40.423Z,14.40
2023-05-18T19:25:07.474Z,14.40
2023-05-18T19:27:34.371Z,14.40
2023-05-18T19:30:03.954Z,14.40
2023-05-18T19:32:31.161Z,14.30
2023-05-18T19:34:57.910Z,14.30
2023-05-18T19:37:24.754Z,14.30
2023-05-18T19:39:51.498Z,14.30
2023-05-18T19:42:18.229Z,14.30
2023-05-18T19:44:44.940Z,14.20
2023-05-18T19:47:11.826Z,14.20
2023-05-18T19:49:38.514Z,14.20
2023-05-18T19:52:08.335Z,14.20
2023-05-18T19:54:38.549Z,14.10
2023-05-18T19:57:05.524Z,14.10
2023-05-18T19:59:32.335Z,14.10
2023-05-18T20:01:59.437Z,14.10
2023-05-18T20:04:28.268Z,14.10
2023-05-18T20:06:59.105Z,14.00
2023-05-18T20:09:26.588Z,14.00
2023-05-18T20:11:54.384Z,14.00
2023-05-18T20:14:21.293Z,13.90
2023-05-18T20:16:48.704Z,13.90
2023-05-18T20:19:18.015Z,13.90
2023-05-18T20:21:48.482Z,13.90
2023-05-18T20:24:15.322Z,13.90
2023-05-18T20:26:42.078Z,13.90
2023-05-18T20:29:08.886Z,13.80
2023-05-18T20:31:35.985Z,13.90
2023-05-18T20:34:03.101Z,13.80
2023-05-18T20:36:30.133Z,13.80
2023-05-18T20:38:57.494Z,13.80
2023-05-18T20:41:24.386Z,13.70
2023-05-18T20:43:51.361Z,13.70
2023-05-18T20:46:23.014Z,13.70
2023-05-18T20:48:52.941Z,13.70
2023-05-18T20:51:22.457Z,13.60
2023-05-18T20:53:49.595Z,13.60
2023-05-18T20:56:16.416Z,13.60
2023-05-18T20:58:48.469Z,13.60
2023-05-18T21:01:16.330Z,13.60
2023-05-18T21:03:44.980Z,13.60
2023-05-18T21:06:13.094Z,13.60
2023-05-18T21:08:40.609Z,13.60
2023-05-18T21:11:07.477Z,13.50
2023-05-18T21:13:36.718Z,13.50
2023-05-18T21:16:06.509Z,13.50
2023-05-18T21:18:34.470Z,13.50
2023-05-18T21:21:02.324Z,13.50
2023-05-18T21:23:29.401Z,13.50
2023-05-18T21:25:57.039Z,13.40
2023-05-18T21:28:26.732Z,13.40
2023-05-18T21:30:54.172Z,13.40
2023-05-18T21:33:22.146Z,13.40
2023-05-18T21:35:49.174Z,13.30
2023-05-18T21:38:16.793Z,13.30
2023-05-18T21:40:44.069Z,13.40
2023-05-18T21:43:11.221Z,13.30
2023-05-18T21:45:38.609Z,13.20
2023-05-18T21:48:06.158Z,13.20
2023-05-18T21:50:35.340Z,13.20
2023-05-18T21:53:06.122Z,13.20
2023-05-18T21:55:33.380Z,13.20
2023-05-18T21:58:00.227Z,13.20
2023-05-18T22:00:28.067Z,13.20
2023-05-18T22:02:54.874Z,13.10
2023-05-18T22:05:21.954Z,13.10
2023-05-18T22:07:49.372Z,13.10
2023-05-18T22:10:18.190Z,13.10
2023-05-18T22:12:45.478Z,13.00
2023-05-18T22:15:12.702Z,13.00
2023-05-18T22:17:39.894Z,12.90
2023-05-18T22:20:08.947Z,12.80
2023-05-18T22:22:35.968Z,12.80
2023-05-18T22:25:02.928Z,12.80
2023-05-18T22:27:30.185Z,12.70
2023-05-18T22:29:57.288Z,12.80
2023-05-18T22:32:24.468Z,12.80
2023-05-18T22:34:52.047Z,12.80
2023-05-18T22:37:19.093Z,12.70
2023-05-18T22:39:45.871Z,12.70
2023-05-18T22:42:12.593Z,12.60
2023-05-18T22:44:39.450Z,12.60
2023-05-18T22:47:06.478Z,12.60
2023-05-18T22:49:35.619Z,12.50
2023-05-18T22:52:04.296Z,12.60
2023-05-18T22:54:31.440Z,12.50
2023-05-18T22:56:59.489Z,12.60
2023-05-18T22:59:26.826Z,12.40
2023-05-18T23:01:54.652Z,12.40
2023-05-18T23:04:21.602Z,12.40
2023-05-18T23:06:49.399Z,12.40
2023-05-18T23:09:17.007Z,12.40
2023-05-18T23:11:48.371Z,12.40
2023-05-18T23:14:15.440Z,12.40
2023-05-18T23:16:42.654Z,12.40
2023-05-18T23:19:12.487Z,12.40
2023-05-18T23:21:42.273Z,12.40
2023-05-18T23:24:12.016Z,12.30
2023-05-18T23:26:42.131Z,12.30
2023-05-18T23:29:09.379Z,12.30
2023-05-18T23:31:36.638Z,12.20
2023-05-18T23:34:04.018Z,12.30
2023-05-18T23:36:35.001Z,12.20
2023-05-18T23:39:02.296Z,12.30
2023-05-18T23:41:31.445Z,12.30
2023-05-18T23:43:58.840Z,12.20
2023-05-18T23:46:26.222Z,12.20
2023-05-18T23:48:53.504Z,12.20
2023-05-18T23:51:21.233Z,12.20
2023-05-18T23:53:51.183Z,12.20
2023-05-18T23:56:18.888Z,12.20
2023-05-18T23:58:47.464Z,12.20
